Time;durP1;ratioP1;P1;durP2;ratioP2;P2;SDS_P1;SDS_P2;PMS_P1;PMS_P2;Temp;Humidity;BMP_temperature;BMP_pressure;BME280_temperature;BME280_humidity;BME280_pressure;Samples;Min_cycle;Max_cycle;Signal;HPM_P1;HPM_P2
2022/11/27 00:02:51;;;;;;;86.40;41.63;;;;;;;;;;6289265;28;20115;-67
2022/11/27 00:05:54;;;;;;;49.85;25.17;;;;;;;;;;6287758;28;20049;-68
2022/11/27 00:08:57;;;;;;;76.45;34.72;;;;;;;;;;6289147;28;20061;-67
2022/11/27 00:11:59;;;;;;;47.15;24.38;;;;;;;;;;6285921;28;20107;-67
2022/11/27 00:15:01;;;;;;;35.42;18.75;;;;;;;;;;6287171;28;20111;-68
2022/11/27 00:18:03;;;;;;;32.00;18.08;;;;;;;;;;6291002;28;20053;-66
2022/11/27 00:21:07;;;;;;;24.42;14.63;;;;;;;;;;6284501;28;20386;-66
2022/11/27 00:24:09;;;;;;;22.70;13.90;;;;;;;;;;6284882;28;20481;-65
2022/11/27 00:27:12;;;;;;;25.45;13.77;;;;;;;;;;6283351;28;20076;-66
2022/11/27 00:30:14;;;;;;;28.77;14.05;;;;;;;;;;6283371;28;20056;-65
2022/11/27 00:33:16;;;;;;;24.85;14.23;;;;;;;;;;6287060;28;20061;-66
2022/11/27 00:36:17;;;;;;;24.92;14.40;;;;;;;;;;6277082;28;20320;-67
2022/11/27 00:39:19;;;;;;;22.33;13.20;;;;;;;;;;6278051;28;20225;-66
2022/11/27 00:42:23;;;;;;;19.73;12.88;;;;;;;;;;6279390;28;20056;-65
2022/11/27 00:45:24;;;;;;;17.30;12.63;;;;;;;;;;6276907;28;20234;-66
2022/11/27 00:48:26;;;;;;;20.85;12.75;;;;;;;;;;6284633;28;20060;-65
2022/11/27 00:51:28;;;;;;;22.10;13.07;;;;;;;;;;6277160;28;20106;-65
2022/11/27 00:54:30;;;;;;;18.42;12.50;;;;;;;;;;6279950;28;20107;-66
2022/11/27 00:57:34;;;;;;;19.10;12.57;;;;;;;;;;6277522;28;20052;-66
2022/11/27 01:00:36;;;;;;;22.77;12.57;;;;;;;;;;6279081;28;20376;-66
2022/11/27 01:03:37;;;;;;;18.60;12.30;;;;;;;;;;6279890;28;20045;-65
2022/11/27 01:06:39;;;;;;;21.80;12.20;;;;;;;;;;6279196;28;20053;-66
2022/11/27 01:09:41;;;;;;;20.08;12.07;;;;;;;;;;6278441;28;20055;-66
2022/11/27 01:12:44;;;;;;;18.15;11.88;;;;;;;;;;6276974;28;20286;-67
2022/11/27 01:15:46;;;;;;;19.02;11.73;;;;;;;;;;6279814;28;20052;-66
2022/11/27 01:18:49;;;;;;;18.38;11.27;;;;;;;;;;6280700;28;20041;-66
2022/11/27 01:21:51;;;;;;;19.17;11.52;;;;;;;;;;6279008;28;20044;-65
2022/11/27 01:24:52;;;;;;;18.10;11.70;;;;;;;;;;6279846;28;20320;-66
2022/11/27 01:27:55;;;;;;;20.77;11.05;;;;;;;;;;6278393;28;20068;-65
2022/11/27 01:30:57;;;;;;;16.33;10.25;;;;;;;;;;6276804;28;20052;-65
2022/11/27 01:34:02;;;;;;;18.88;10.90;;;;;;;;;;6281243;28;20064;-67
2022/11/27 01:37:04;;;;;;;16.95;10.00;;;;;;;;;;6280620;28;20336;-65
2022/11/27 01:40:07;;;;;;;14.15;10.73;;;;;;;;;;6277498;28;20068;-66
2022/11/27 01:43:15;;;;;;;16.20;10.03;;;;;;;;;;6279169;28;20256;-65
2022/11/27 01:46:31;;;;;;;15.70;9.63;;;;;;;;;;6281466;28;20313;-66
2022/11/27 01:49:36;;;;;;;16.50;10.52;;;;;;;;;;6279615;28;20173;-65
2022/11/27 01:52:41;;;;;;;13.95;8.95;;;;;;;;;;6275434;28;20056;-65
2022/11/27 01:55:45;;;;;;;15.55;9.98;;;;;;;;;;6280085;28;20053;-65
2022/11/27 01:58:49;;;;;;;16.25;9.95;;;;;;;;;;6277365;28;20331;-65
2022/11/27 02:01:50;;;;;;;13.67;9.10;;;;;;;;;;6277410;28;20106;-64
2022/11/27 02:04:53;;;;;;;15.20;9.85;;;;;;;;;;6281766;28;20099;-65
2022/11/27 02:07:57;;;;;;;17.63;10.50;;;;;;;;;;6278106;28;20107;-66
2022/11/27 02:11:04;;;;;;;20.88;10.75;;;;;;;;;;6279397;28;20049;-65
2022/11/27 02:14:11;;;;;;;16.48;9.82;;;;;;;;;;6279446;28;20252;-65
2022/11/27 02:17:17;;;;;;;15.18;9.93;;;;;;;;;;6281504;28;20055;-65
2022/11/27 02:20:29;;;;;;;18.38;10.07;;;;;;;;;;6278255;28;20348;-64
2022/11/27 02:23:53;;;;;;;16.38;10.07;;;;;;;;;;6279393;28;20081;-65
2022/11/27 02:27:09;;;;;;;15.77;9.90;;;;;;;;;;6276523;28;20057;-65
2022/11/27 02:30:12;;;;;;;15.10;9.15;;;;;;;;;;6274861;28;20052;-65
2022/11/27 02:33:16;;;;;;;16.65;9.95;;;;;;;;;;6275650;28;20053;-64
2022/11/27 02:36:21;;;;;;;16.35;9.25;;;;;;;;;;6277370;28;20396;-65
2022/11/27 02:39:25;;;;;;;12.73;8.70;;;;;;;;;;6279270;28;20053;-65
2022/11/27 02:42:31;;;;;;;14.65;9.35;;;;;;;;;;6279832;28;20053;-65
2022/11/27 02:45:36;;;;;;;13.57;9.18;;;;;;;;;;6275808;28;20057;-66
2022/11/27 02:48:40;;;;;;;14.88;8.85;;;;;;;;;;6278076;28;20328;-65
2022/11/27 02:51:46;;;;;;;15.65;9.13;;;;;;;;;;6279986;28;20248;-65
2022/11/27 02:54:48;;;;;;;17.35;10.05;;;;;;;;;;6278060;28;20061;-65
2022/11/27 02:57:54;;;;;;;16.25;9.30;;;;;;;;;;6275522;28;20317;-64
2022/11/27 03:00:57;;;;;;;17.30;10.27;;;;;;;;;;6272883;28;20931;-65
2022/11/27 03:04:00;;;;;;;21.77;12.25;;;;;;;;;;6282238;28;20114;-64
2022/11/27 03:07:05;;;;;;;22.08;12.27;;;;;;;;;;6277618;28;20060;-65
2022/11/27 03:10:12;;;;;;;18.20;11.75;;;;;;;;;;6276729;28;20071;-66
2022/11/27 03:13:14;;;;;;;20.40;12.15;;;;;;;;;;6276088;28;20041;-66
2022/11/27 03:16:22;;;;;;;17.88;11.18;;;;;;;;;;6278952;28;20052;-66
2022/11/27 03:19:26;;;;;;;23.30;12.23;;;;;;;;;;6277531;28;20045;-66
2022/11/27 03:22:30;;;;;;;18.48;11.82;;;;;;;;;;6276981;28;20070;-66
2022/11/27 03:25:32;;;;;;;23.80;11.75;;;;;;;;;;6281724;28;20104;-66
2022/11/27 03:28:34;;;;;;;18.30;12.57;;;;;;;;;;6283130;28;20071;-67
2022/11/27 03:31:39;;;;;;;19.52;13.13;;;;;;;;;;6282495;28;20060;-67
2022/11/27 03:34:41;;;;;;;20.05;11.90;;;;;;;;;;6277015;28;20103;-65
2022/11/27 03:37:43;;;;;;;20.42;12.98;;;;;;;;;;6281421;28;20290;-66
2022/11/27 03:40:50;;;;;;;22.90;14.52;;;;;;;;;;6278655;28;20049;-66
2022/11/27 03:43:57;;;;;;;20.75;13.27;;;;;;;;;;6281512;28;20053;-67
2022/11/27 03:47:06;;;;;;;21.48;14.13;;;;;;;;;;6279127;28;20044;-65
2022/11/27 03:50:26;;;;;;;21.38;13.52;;;;;;;;;;6281077;28;20057;-68
2022/11/27 03:53:34;;;;;;;23.02;14.20;;;;;;;;;;6286062;28;20159;-66
2022/11/27 03:56:38;;;;;;;27.15;14.35;;;;;;;;;;6278762;28;20237;-66
2022/11/27 03:59:42;;;;;;;24.40;13.93;;;;;;;;;;6282250;28;20048;-67
2022/11/27 04:02:46;;;;;;;;;;;;;;;;;;6280387;28;20345;-67
2022/11/27 04:05:47;;;;;;;22.08;13.60;;;;;;;;;;6281922;28;19932;-66
2022/11/27 04:08:49;;;;;;;24.95;14.63;;;;;;;;;;6282400;28;20068;-66
2022/11/27 04:11:51;;;;;;;26.95;15.70;;;;;;;;;;6281263;28;20120;-66
2022/11/27 04:14:52;;;;;;;24.10;14.85;;;;;;;;;;6281898;28;20102;-66
2022/11/27 04:17:55;;;;;;;24.17;15.38;;;;;;;;;;6281880;28;20052;-66
2022/11/27 04:20:57;;;;;;;27.85;16.80;;;;;;;;;;6280261;28;20403;-65
2022/11/27 04:23:59;;;;;;;26.05;16.27;;;;;;;;;;6284163;28;20433;-65
2022/11/27 04:27:01;;;;;;;26.95;17.08;;;;;;;;;;6279971;28;20068;-65
2022/11/27 04:30:02;;;;;;;29.38;17.48;;;;;;;;;;6280933;28;20142;-66
2022/11/27 04:33:05;;;;;;;28.73;17.70;;;;;;;;;;6283555;28;20053;-65
2022/11/27 04:36:07;;;;;;;33.72;18.40;;;;;;;;;;6280895;28;20094;-65
2022/11/27 04:39:09;;;;;;;30.17;18.35;;;;;;;;;;6280771;28;20053;-65
2022/11/27 04:42:10;;;;;;;33.95;19.30;;;;;;;;;;6278478;28;20094;-65
2022/11/27 04:45:13;;;;;;;35.35;18.70;;;;;;;;;;6281640;28;20060;-65
2022/11/27 04:48:16;;;;;;;28.25;17.83;;;;;;;;;;6279311;28;20063;-65
2022/11/27 04:51:17;;;;;;;31.42;19.55;;;;;;;;;;6279816;28;20052;-65
2022/11/27 04:54:19;;;;;;;33.58;19.67;;;;;;;;;;6279076;28;20052;-65
2022/11/27 04:57:21;;;;;;;32.60;18.90;;;;;;;;;;6278905;28;20048;-69
2022/11/27 05:00:23;;;;;;;29.65;19.15;;;;;;;;;;6280197;28;20060;-66
2022/11/27 05:03:26;;;;;;;31.50;19.42;;;;;;;;;;6280807;28;20057;-65
2022/11/27 05:06:28;;;;;;;30.67;18.58;;;;;;;;;;6281557;28;20055;-65
2022/11/27 05:09:29;;;;;;;29.95;18.20;;;;;;;;;;6277669;28;20056;-65
2022/11/27 05:12:31;;;;;;;29.48;18.67;;;;;;;;;;6278659;28;20045;-66
2022/11/27 05:15:33;;;;;;;33.25;20.98;;;;;;;;;;6281547;28;20053;-65
2022/11/27 05:18:36;;;;;;;33.88;19.70;;;;;;;;;;6278033;28;20040;-65
2022/11/27 05:21:38;;;;;;;34.60;19.07;;;;;;;;;;6282190;28;20044;-65
2022/11/27 05:24:39;;;;;;;29.05;18.77;;;;;;;;;;6279585;28;20094;-65
2022/11/27 05:27:41;;;;;;;31.92;19.02;;;;;;;;;;6279963;28;20345;-66
2022/11/27 05:30:43;;;;;;;31.95;18.15;;;;;;;;;;6278568;28;20045;-65
2022/11/27 05:33:46;;;;;;;29.45;18.38;;;;;;;;;;6279065;28;20515;-65
2022/11/27 05:36:48;;;;;;;31.33;18.20;;;;;;;;;;6278745;28;20052;-66
2022/11/27 05:39:49;;;;;;;29.67;18.55;;;;;;;;;;6278856;28;20379;-66
2022/11/27 05:42:51;;;;;;;27.00;17.88;;;;;;;;;;6278070;28;20057;-66
2022/11/27 05:45:52;;;;;;;31.48;19.23;;;;;;;;;;6277929;28;20337;-65
2022/11/27 05:48:55;;;;;;;29.10;17.67;;;;;;;;;;6278846;28;20226;-64
2022/11/27 05:51:57;;;;;;;27.88;17.35;;;;;;;;;;6279248;28;20056;-64
2022/11/27 05:54:59;;;;;;;31.90;18.40;;;;;;;;;;6280190;28;20052;-65
2022/11/27 05:58:00;;;;;;;28.20;18.50;;;;;;;;;;6281119;28;20051;-65
2022/11/27 06:01:03;;;;;;;31.95;17.83;;;;;;;;;;6278503;28;20274;-65
2022/11/27 06:04:06;;;;;;;31.65;18.35;;;;;;;;;;6275953;28;20063;-65
2022/11/27 06:07:08;;;;;;;29.30;17.95;;;;;;;;;;6276675;28;20061;-72
2022/11/27 06:10:10;;;;;;;30.67;18.23;;;;;;;;;;6279447;28;20119;-66
2022/11/27 06:13:11;;;;;;;30.48;18.02;;;;;;;;;;6282043;28;20060;-66
2022/11/27 06:16:16;;;;;;;31.33;16.55;;;;;;;;;;6276752;28;20233;-65
2022/11/27 06:19:19;;;;;;;36.08;16.85;;;;;;;;;;6281328;28;20052;-66
2022/11/27 06:22:21;;;;;;;28.38;17.25;;;;;;;;;;6280271;28;20370;-66
2022/11/27 06:25:23;;;;;;;28.15;16.15;;;;;;;;;;6279033;28;20052;-65
2022/11/27 06:28:25;;;;;;;28.70;17.95;;;;;;;;;;6276875;28;20075;-66
2022/11/27 06:31:28;;;;;;;28.30;16.77;;;;;;;;;;6280075;28;20061;-64
2022/11/27 06:34:31;;;;;;;26.80;18.17;;;;;;;;;;6277610;28;23385;-64
2022/11/27 06:37:33;;;;;;;26.90;15.38;;;;;;;;;;6279370;28;20049;-65
2022/11/27 06:40:34;;;;;;;31.42;17.27;;;;;;;;;;6277587;28;20056;-65
2022/11/27 06:43:36;;;;;;;26.88;17.08;;;;;;;;;;6276656;28;20048;-64
2022/11/27 06:46:38;;;;;;;24.13;16.38;;;;;;;;;;6276468;28;20051;-64
2022/11/27 06:49:41;;;;;;;28.40;16.60;;;;;;;;;;6278199;28;20053;-66
2022/11/27 06:52:42;;;;;;;29.02;16.45;;;;;;;;;;6278876;28;20040;-65
2022/11/27 06:55:44;;;;;;;26.42;16.30;;;;;;;;;;6274678;28;20057;-64
2022/11/27 06:58:46;;;;;;;25.33;16.88;;;;;;;;;;6276033;28;20057;-64
2022/11/27 07:01:48;;;;;;;32.47;16.80;;;;;;;;;;6283264;28;20060;-64
2022/11/27 07:04:51;;;;;;;30.83;16.52;;;;;;;;;;6278244;28;20053;-66
2022/11/27 07:07:52;;;;;;;23.70;15.90;;;;;;;;;;6283912;28;20063;-66
2022/11/27 07:10:54;;;;;;;23.23;15.57;;;;;;;;;;6281695;28;20057;-65
2022/11/27 07:13:57;;;;;;;25.55;15.75;;;;;;;;;;6282695;28;20337;-64
2022/11/27 07:16:59;;;;;;;24.50;15.32;;;;;;;;;;6282745;28;20115;-64
2022/11/27 07:20:02;;;;;;;25.33;16.15;;;;;;;;;;6281384;28;20053;-65
2022/11/27 07:23:03;;;;;;;24.23;15.48;;;;;;;;;;6282015;28;20333;-66
2022/11/27 07:26:06;;;;;;;24.40;15.55;;;;;;;;;;6281929;28;20057;-66
2022/11/27 07:29:08;;;;;;;24.08;15.45;;;;;;;;;;6280151;28;20049;-66
2022/11/27 07:32:10;;;;;;;25.35;16.10;;;;;;;;;;6273198;28;20048;-67
2022/11/27 07:35:13;;;;;;;23.27;15.90;;;;;;;;;;6282556;28;20048;-64
2022/11/27 07:38:14;;;;;;;19.83;13.77;;;;;;;;;;6282108;28;20103;-65
2022/11/27 07:41:17;;;;;;;23.35;14.27;;;;;;;;;;6274626;28;20064;-64
2022/11/27 07:44:18;;;;;;;26.40;14.05;;;;;;;;;;6285704;28;20052;-65
2022/11/27 07:47:20;;;;;;;23.00;14.32;;;;;;;;;;6279862;28;20074;-64
2022/11/27 07:50:23;;;;;;;19.35;12.52;;;;;;;;;;6277134;28;20244;-65
2022/11/27 07:53:25;;;;;;;17.85;12.32;;;;;;;;;;6281416;28;20069;-64
2022/11/27 07:56:27;;;;;;;18.73;12.75;;;;;;;;;;6281231;28;20049;-65
2022/11/27 07:59:29;;;;;;;19.75;13.40;;;;;;;;;;6280453;28;20060;-66
2022/11/27 08:02:30;;;;;;;21.20;13.80;;;;;;;;;;6280700;28;20620;-66
2022/11/27 08:05:35;;;;;;;18.27;13.15;;;;;;;;;;6281948;28;20057;-66
2022/11/27 08:08:37;;;;;;;20.15;13.80;;;;;;;;;;6282951;28;20045;-66
2022/11/27 08:11:39;;;;;;;19.95;13.93;;;;;;;;;;6280835;28;20217;-66
2022/11/27 08:14:41;;;;;;;20.98;13.43;;;;;;;;;;6278730;28;20064;-66
2022/11/27 08:17:43;;;;;;;22.75;14.13;;;;;;;;;;6282263;28;20302;-65
2022/11/27 08:20:46;;;;;;;25.20;14.75;;;;;;;;;;6281925;28;20286;-66
2022/11/27 08:23:47;;;;;;;21.27;14.98;;;;;;;;;;6284729;28;20049;-65
2022/11/27 08:26:50;;;;;;;19.38;13.48;;;;;;;;;;6281068;28;20067;-66
2022/11/27 08:29:52;;;;;;;19.83;13.27;;;;;;;;;;6279940;28;20056;-66
2022/11/27 08:32:54;;;;;;;20.38;13.88;;;;;;;;;;6282071;28;20343;-66
2022/11/27 08:35:57;;;;;;;18.92;13.50;;;;;;;;;;6280303;28;20044;-66
2022/11/27 08:38:58;;;;;;;17.25;13.30;;;;;;;;;;6282020;28;20049;-66
2022/11/27 08:42:00;;;;;;;21.00;14.30;;;;;;;;;;6279397;28;20048;-66
2022/11/27 08:45:01;;;;;;;18.65;13.32;;;;;;;;;;6279871;28;20057;-65
2022/11/27 08:48:03;;;;;;;20.27;14.15;;;;;;;;;;6277429;28;20087;-64
2022/11/27 08:51:08;;;;;;;19.95;13.75;;;;;;;;;;6276764;28;20064;-67
2022/11/27 08:54:10;;;;;;;24.30;13.75;;;;;;;;;;6278825;28;20044;-65
2022/11/27 08:57:11;;;;;;;20.10;13.27;;;;;;;;;;6281090;28;20044;-65
2022/11/27 09:00:14;;;;;;;19.50;14.25;;;;;;;;;;6276528;28;20056;-64
2022/11/27 09:03:16;;;;;;;20.00;12.43;;;;;;;;;;6277946;28;20061;-65
2022/11/27 09:06:21;;;;;;;17.15;11.73;;;;;;;;;;6278061;28;20052;-66
2022/11/27 09:09:23;;;;;;;17.77;11.38;;;;;;;;;;6279990;28;20091;-66
2022/11/27 09:12:25;;;;;;;12.27;8.52;;;;;;;;;;6278458;28;20051;-64
2022/11/27 09:15:26;;;;;;;16.55;8.38;;;;;;;;;;6280001;28;20338;-66
2022/11/27 09:18:28;;;;;;;9.65;7.93;;;;;;;;;;6281958;28;20059;-65
2022/11/27 09:21:31;;;;;;;11.30;8.23;;;;;;;;;;6281848;28;20382;-65
2022/11/27 09:24:33;;;;;;;12.60;8.87;;;;;;;;;;6277781;28;20070;-65
2022/11/27 09:27:36;;;;;;;10.25;7.18;;;;;;;;;;6279241;28;20056;-64
2022/11/27 09:30:37;;;;;;;10.10;7.10;;;;;;;;;;6277514;28;20134;-65
2022/11/27 09:33:40;;;;;;;9.35;7.30;;;;;;;;;;6279395;28;20059;-65
2022/11/27 09:36:43;;;;;;;10.18;7.13;;;;;;;;;;6278746;28;20059;-66
2022/11/27 09:39:45;;;;;;;11.90;7.07;;;;;;;;;;6281463;28;20071;-66
2022/11/27 09:42:50;;;;;;;11.25;7.25;;;;;;;;;;6275878;28;20048;-65
2022/11/27 09:45:53;;;;;;;12.00;6.20;;;;;;;;;;6276324;28;20221;-65
2022/11/27 09:48:56;;;;;;;7.45;6.15;;;;;;;;;;6274007;28;20346;-65
2022/11/27 09:52:03;;;;;;;9.73;6.97;;;;;;;;;;6275625;28;20057;-65
2022/11/27 09:55:11;;;;;;;10.15;6.93;;;;;;;;;;6279727;28;20257;-66
2022/11/27 09:58:18;;;;;;;8.35;5.75;;;;;;;;;;6278168;28;20045;-66
2022/11/27 10:01:24;;;;;;;9.45;6.22;;;;;;;;;;6279329;28;20055;-65
2022/11/27 10:04:26;;;;;;;9.60;5.97;;;;;;;;;;6281643;28;20095;-66
2022/11/27 10:07:39;;;;;;;9.07;6.60;;;;;;;;;;6279079;28;20310;-66
2022/11/27 10:10:45;;;;;;;7.30;6.27;;;;;;;;;;6279689;28;20142;-66
2022/11/27 10:13:55;;;;;;;11.00;7.15;;;;;;;;;;6279345;28;20475;-66
2022/11/27 10:17:02;;;;;;;12.93;7.80;;;;;;;;;;6277768;28;20096;-66
2022/11/27 10:20:11;;;;;;;11.13;7.05;;;;;;;;;;6279755;28;21060;-66
2022/11/27 10:23:22;;;;;;;9.70;6.65;;;;;;;;;;6281723;28;20060;-66
2022/11/27 10:26:28;;;;;;;10.10;7.13;;;;;;;;;;6278726;28;20091;-66
2022/11/27 10:29:35;;;;;;;11.52;7.07;;;;;;;;;;6277834;28;20052;-66
2022/11/27 10:32:37;;;;;;;9.45;7.20;;;;;;;;;;6278115;28;20252;-66
2022/11/27 10:35:39;;;;;;;8.60;6.72;;;;;;;;;;6278909;28;20053;-66
2022/11/27 10:38:43;;;;;;;10.57;7.10;;;;;;;;;;6278149;28;22137;-66
2022/11/27 10:41:50;;;;;;;10.68;8.07;;;;;;;;;;6276623;28;20103;-66
2022/11/27 10:44:57;;;;;;;9.35;8.15;;;;;;;;;;6276987;28;20317;-66
2022/11/27 10:47:59;;;;;;;12.05;8.98;;;;;;;;;;6276983;28;20056;-65
2022/11/27 10:51:01;;;;;;;13.40;10.25;;;;;;;;;;6274481;28;20083;-67
2022/11/27 10:54:05;;;;;;;11.82;9.98;;;;;;;;;;6278784;28;20060;-66
2022/11/27 10:57:24;;;;;;;15.02;11.13;;;;;;;;;;6277347;28;20057;-66
2022/11/27 11:00:26;;;;;;;13.00;10.05;;;;;;;;;;6281542;28;20048;-66
2022/11/27 11:03:28;;;;;;;11.63;8.82;;;;;;;;;;6273928;28;20345;-65
2022/11/27 11:06:31;;;;;;;10.70;7.35;;;;;;;;;;6277299;28;20102;-65
2022/11/27 11:09:34;;;;;;;8.70;7.43;;;;;;;;;;6279995;28;20099;-67
2022/11/27 11:12:36;;;;;;;7.03;5.63;;;;;;;;;;6274888;28;20052;-67
2022/11/27 11:15:51;;;;;;;5.82;4.57;;;;;;;;;;6278787;28;20324;-67
2022/11/27 11:18:54;;;;;;;8.80;5.53;;;;;;;;;;6279650;28;20053;-68
2022/11/27 11:21:56;;;;;;;6.72;5.57;;;;;;;;;;6279430;28;20091;-68
2022/11/27 11:24:59;;;;;;;7.93;6.35;;;;;;;;;;6278068;28;20040;-67
2022/11/27 11:28:01;;;;;;;8.75;6.40;;;;;;;;;;6280237;28;20086;-68
2022/11/27 11:31:07;;;;;;;6.93;5.68;;;;;;;;;;6277809;28;20592;-67
2022/11/27 11:34:20;;;;;;;5.63;4.45;;;;;;;;;;6276757;28;20085;-68
2022/11/27 11:37:24;;;;;;;5.28;3.85;;;;;;;;;;6277086;28;20040;-67
2022/11/27 11:40:29;;;;;;;5.60;4.28;;;;;;;;;;6275573;28;20053;-64
2022/11/27 11:43:34;;;;;;;6.00;4.00;;;;;;;;;;6271653;28;20057;-66
2022/11/27 11:46:38;;;;;;;5.55;4.80;;;;;;;;;;6276961;28;20071;-69
2022/11/27 11:49:40;;;;;;;5.60;4.57;;;;;;;;;;6281862;28;20060;-72
2022/11/27 11:52:48;;;;;;;7.95;5.90;;;;;;;;;;6279319;28;20183;-72
2022/11/27 11:55:59;;;;;;;8.00;6.03;;;;;;;;;;6283851;28;20066;-72
2022/11/27 11:59:02;;;;;;;7.85;5.68;;;;;;;;;;6282708;28;20053;-72
2022/11/27 12:02:24;;;;;;;6.07;5.05;;;;;;;;;;6281850;28;20049;-72
2022/11/27 12:05:34;;;;;;;6.38;5.03;;;;;;;;;;6281599;28;20048;-72
2022/11/27 12:08:46;;;;;;;7.40;4.85;;;;;;;;;;6285482;28;20095;-72
2022/11/27 12:11:53;;;;;;;7.65;4.90;;;;;;;;;;6282360;28;20056;-75
2022/11/27 12:14:59;;;;;;;6.03;4.85;;;;;;;;;;6280049;28;20057;-71
2022/11/27 12:18:05;;;;;;;7.30;4.90;;;;;;;;;;6281254;28;20090;-71
2022/11/27 12:21:13;;;;;;;10.18;5.10;;;;;;;;;;6284204;28;20048;-70
2022/11/27 12:24:24;;;;;;;8.50;5.15;;;;;;;;;;6281233;28;20052;-68
2022/11/27 12:27:46;;;;;;;8.65;5.97;;;;;;;;;;6280337;28;20052;-68
2022/11/27 12:30:52;;;;;;;6.88;5.05;;;;;;;;;;6286633;28;20360;-70
2022/11/27 12:34:00;;;;;;;6.53;5.45;;;;;;;;;;6292184;28;20275;-69
2022/11/27 12:37:13;;;;;;;7.47;5.30;;;;;;;;;;6285716;28;20048;-70
2022/11/27 12:40:25;;;;;;;6.20;5.15;;;;;;;;;;6284644;28;20236;-70
2022/11/27 12:43:30;;;;;;;7.35;5.20;;;;;;;;;;6283706;28;20608;-68
2022/11/27 12:46:38;;;;;;;7.07;5.30;;;;;;;;;;6284653;28;20059;-67
2022/11/27 12:49:42;;;;;;;6.32;5.20;;;;;;;;;;6284622;28;20048;-71
2022/11/27 12:52:48;;;;;;;6.72;5.18;;;;;;;;;;6283952;28;20053;-68
2022/11/27 12:56:03;;;;;;;6.80;5.30;;;;;;;;;;6282182;28;20073;-68
2022/11/27 12:59:12;;;;;;;8.25;4.80;;;;;;;;;;6287481;28;20257;-69
2022/11/27 13:02:25;;;;;;;7.15;4.82;;;;;;;;;;6291057;28;20219;-69
2022/11/27 13:05:29;;;;;;;6.55;5.18;;;;;;;;;;6289150;28;20053;-69
2022/11/27 13:08:41;;;;;;;7.53;5.70;;;;;;;;;;6287986;28;20057;-69
2022/11/27 13:11:43;;;;;;;7.68;5.90;;;;;;;;;;6287383;28;20052;-69
2022/11/27 13:14:50;;;;;;;8.02;6.18;;;;;;;;;;6285098;28;20057;-67
2022/11/27 13:18:00;;;;;;;8.38;6.07;;;;;;;;;;6282299;28;20070;-69
2022/11/27 13:21:06;;;;;;;7.95;6.03;;;;;;;;;;6272707;28;20064;-68
2022/11/27 13:24:11;;;;;;;8.80;6.78;;;;;;;;;;6289007;28;20056;-68
2022/11/27 13:27:16;;;;;;;8.18;5.78;;;;;;;;;;6283700;28;20344;-69
2022/11/27 13:30:22;;;;;;;10.38;6.18;;;;;;;;;;6280681;28;20079;-69
2022/11/27 13:33:32;;;;;;;7.60;6.38;;;;;;;;;;6290872;28;20045;-68
2022/11/27 13:36:38;;;;;;;9.95;7.70;;;;;;;;;;6288343;28;20051;-68
2022/11/27 13:39:41;;;;;;;8.50;6.68;;;;;;;;;;6287863;28;20040;-69
2022/11/27 13:42:43;;;;;;;;;;;;;;;;;;6283359;28;20149;-68
2022/11/27 13:45:46;;;;;;;7.55;6.25;;;;;;;;;;6280306;28;19916;-69
2022/11/27 13:48:50;;;;;;;6.50;5.63;;;;;;;;;;6279359;28;20053;-69
2022/11/27 13:51:52;;;;;;;7.43;6.05;;;;;;;;;;6279758;28;20332;-69
2022/11/27 13:54:54;;;;;;;7.00;5.85;;;;;;;;;;6276258;28;20047;-69
2022/11/27 13:57:58;;;;;;;11.35;5.13;;;;;;;;;;6279820;28;20349;-69
2022/11/27 14:01:12;;;;;;;7.38;5.13;;;;;;;;;;6275593;28;20073;-69
2022/11/27 14:04:14;;;;;;;6.63;4.88;;;;;;;;;;6276489;28;20045;-69
2022/11/27 14:07:16;;;;;;;5.30;4.80;;;;;;;;;;6282627;28;20063;-70
2022/11/27 14:10:21;;;;;;;6.13;4.82;;;;;;;;;;6282022;28;20263;-69
2022/11/27 14:13:33;;;;;;;6.45;5.07;;;;;;;;;;6279433;28;20061;-69
2022/11/27 14:16:37;;;;;;;6.10;5.50;;;;;;;;;;6279468;28;20052;-69
2022/11/27 14:19:41;;;;;;;9.07;5.65;;;;;;;;;;6281669;28;20071;-69
2022/11/27 14:22:45;;;;;;;7.13;5.35;;;;;;;;;;6281910;28;20048;-69
2022/11/27 14:25:47;;;;;;;8.30;5.38;;;;;;;;;;6277167;28;20048;-69
2022/11/27 14:28:51;;;;;;;6.57;5.57;;;;;;;;;;6283383;28;20057;-69
2022/11/27 14:31:57;;;;;;;;;;;;;;;;;;6280197;28;20047;-69
2022/11/27 14:34:59;;;;;;;6.25;5.45;;;;;;;;;;6275591;28;19932;-69
2022/11/27 14:38:08;;;;;;;7.10;5.30;;;;;;;;;;6281700;28;20340;-69
2022/11/27 14:41:15;;;;;;;8.25;5.40;;;;;;;;;;6277066;28;20045;-69
2022/11/27 14:44:18;;;;;;;7.35;5.90;;;;;;;;;;6277089;28;20048;-69
2022/11/27 14:47:22;;;;;;;8.35;5.70;;;;;;;;;;6280835;28;20325;-69
2022/11/27 14:50:24;;;;;;;10.90;6.35;;;;;;;;;;6277744;28;20063;-69
2022/11/27 14:53:27;;;;;;;7.10;6.35;;;;;;;;;;6274313;28;20225;-69
2022/11/27 14:56:31;;;;;;;7.88;6.18;;;;;;;;;;6279789;28;20108;-69
2022/11/27 14:59:32;;;;;;;8.98;6.68;;;;;;;;;;6278588;28;20053;-69
2022/11/27 15:02:36;;;;;;;10.93;6.30;;;;;;;;;;6271734;28;20332;-70
2022/11/27 15:05:38;;;;;;;10.07;6.90;;;;;;;;;;6281122;28;20051;-69
2022/11/27 15:08:39;;;;;;;7.88;6.65;;;;;;;;;;6281882;28;20049;-69
2022/11/27 15:11:41;;;;;;;8.07;6.22;;;;;;;;;;6280566;28;20276;-71
2022/11/27 15:14:46;;;;;;;9.27;6.45;;;;;;;;;;6279506;28;20242;-71
2022/11/27 15:17:50;;;;;;;9.75;7.07;;;;;;;;;;6281546;28;20045;-71
2022/11/27 15:20:52;;;;;;;9.38;7.10;;;;;;;;;;6281026;28;20052;-71
2022/11/27 15:23:55;;;;;;;8.98;6.93;;;;;;;;;;6284838;28;20215;-71
2022/11/27 15:27:07;;;;;;;10.80;7.70;;;;;;;;;;6285038;28;20053;-70
2022/11/27 15:30:12;;;;;;;9.45;6.57;;;;;;;;;;6284077;28;20114;-71
2022/11/27 15:33:26;;;;;;;11.80;7.72;;;;;;;;;;6285438;28;21042;-71
2022/11/27 15:36:34;;;;;;;9.85;7.28;;;;;;;;;;6284453;28;20375;-71
2022/11/27 15:39:38;;;;;;;10.93;7.55;;;;;;;;;;6283402;28;20056;-71
2022/11/27 15:42:39;;;;;;;13.18;7.43;;;;;;;;;;6285007;28;20106;-71
2022/11/27 15:45:41;;;;;;;10.07;7.38;;;;;;;;;;6283336;28;20048;-71
2022/11/27 15:48:44;;;;;;;9.95;7.30;;;;;;;;;;6281177;28;20257;-70
2022/11/27 15:51:46;;;;;;;8.68;7.15;;;;;;;;;;6287671;28;20096;-71
2022/11/27 15:54:48;;;;;;;11.50;7.47;;;;;;;;;;6280548;28;20051;-71
2022/11/27 15:57:49;;;;;;;12.20;7.70;;;;;;;;;;6282406;28;20106;-70
2022/11/27 16:00:51;;;;;;;10.55;7.22;;;;;;;;;;6283870;28;20055;-71
2022/11/27 16:03:54;;;;;;;9.95;7.60;;;;;;;;;;6285672;28;20106;-71
2022/11/27 16:06:56;;;;;;;10.50;7.63;;;;;;;;;;6287469;28;20078;-71
2022/11/27 16:09:58;;;;;;;13.02;8.43;;;;;;;;;;6279910;28;20057;-71
2022/11/27 16:12:59;;;;;;;11.55;7.50;;;;;;;;;;6283547;28;20045;-70
2022/11/27 16:16:02;;;;;;;11.15;8.32;;;;;;;;;;6273001;28;20430;-71
2022/11/27 16:19:05;;;;;;;11.52;8.23;;;;;;;;;;6279176;28;20124;-70
2022/11/27 16:22:07;;;;;;;11.23;7.67;;;;;;;;;;6285358;28;20098;-71
2022/11/27 16:25:09;;;;;;;11.90;8.32;;;;;;;;;;6283405;28;20122;-70
2022/11/27 16:28:10;;;;;;;14.60;8.60;;;;;;;;;;6279105;28;20816;-71
2022/11/27 16:31:13;;;;;;;13.38;8.45;;;;;;;;;;6282072;28;20279;-71
2022/11/27 16:34:17;;;;;;;12.80;8.27;;;;;;;;;;6284858;28;20106;-71
2022/11/27 16:37:18;;;;;;;11.07;8.40;;;;;;;;;;6285491;28;20103;-71
2022/11/27 16:40:20;;;;;;;16.65;8.82;;;;;;;;;;6281019;28;20086;-70
2022/11/27 16:43:22;;;;;;;12.35;9.23;;;;;;;;;;6280259;28;20049;-71
2022/11/27 16:46:26;;;;;;;12.68;9.13;;;;;;;;;;6279527;28;20053;-68
2022/11/27 16:49:29;;;;;;;11.20;8.00;;;;;;;;;;6280575;28;20198;-71
2022/11/27 16:52:30;;;;;;;14.57;8.83;;;;;;;;;;6279085;28;20056;-70
2022/11/27 16:55:32;;;;;;;16.40;8.93;;;;;;;;;;6281900;28;20142;-70
2022/11/27 16:58:34;;;;;;;15.77;9.35;;;;;;;;;;6280950;28;20108;-69
2022/11/27 17:01:37;;;;;;;13.82;8.63;;;;;;;;;;6280812;28;20233;-68
2022/11/27 17:04:41;;;;;;;12.75;8.50;;;;;;;;;;6280388;28;20053;-69
2022/11/27 17:07:43;;;;;;;14.23;8.70;;;;;;;;;;6276306;28;20067;-71
2022/11/27 17:10:45;;;;;;;12.50;8.57;;;;;;;;;;6283389;28;20052;-69
2022/11/27 17:13:47;;;;;;;13.68;9.20;;;;;;;;;;6278329;28;20425;-69
2022/11/27 17:20:00;;;;;;;13.65;8.95;;;;;;;;;;6780101;23;20045;-68
2022/11/27 17:23:02;;;;;;;13.05;8.43;;;;;;;;;;6224430;28;20045;-69
2022/11/27 17:26:07;;;;;;;14.77;8.90;;;;;;;;;;6228305;28;20045;-69
2022/11/27 17:29:09;;;;;;;13.65;8.77;;;;;;;;;;6225859;28;20073;-69
2022/11/27 17:32:12;;;;;;;11.48;8.82;;;;;;;;;;6226051;28;20248;-69
2022/11/27 17:35:15;;;;;;;12.80;9.00;;;;;;;;;;6224963;28;20069;-69
2022/11/27 17:38:17;;;;;;;12.53;8.67;;;;;;;;;;6226266;28;20104;-69
2022/11/27 17:41:18;;;;;;;15.77;9.35;;;;;;;;;;6224140;28;20755;-69
2022/11/27 17:44:20;;;;;;;16.15;9.60;;;;;;;;;;6226209;28;20057;-69
2022/11/27 17:47:22;;;;;;;14.52;8.90;;;;;;;;;;6225363;28;20057;-69
2022/11/27 17:50:25;;;;;;;15.07;8.63;;;;;;;;;;6228400;28;20065;-68
2022/11/27 17:53:27;;;;;;;13.90;9.60;;;;;;;;;;6222827;28;20045;-69
2022/11/27 17:56:29;;;;;;;12.35;8.55;;;;;;;;;;6227793;28;20352;-69
2022/11/27 17:59:31;;;;;;;12.68;8.77;;;;;;;;;;6226617;28;20148;-68
2022/11/27 18:02:32;;;;;;;14.30;9.48;;;;;;;;;;6226980;28;20132;-69
2022/11/27 18:05:38;;;;;;;13.50;9.20;;;;;;;;;;6225977;28;20042;-69
2022/11/27 18:08:39;;;;;;;14.48;9.73;;;;;;;;;;6225760;28;20050;-69